sensor_id;sensor_type;location;lat;lon;timestamp;P1;durP1;ratioP1;P2;durP2;ratioP2
50651;SDS011;61429;52.086;5.240;2022-12-07T00:00:27;7.8;;;4.8;;
50651;SDS011;61429;52.086;5.240;2022-12-07T00:03:39;6.8;;;4.3;;
50651;SDS011;61429;52.086;5.240;2022-12-07T00:05:17;7.8;;;4.8;;
50651;SDS011;61429;52.086;5.240;2022-12-07T00:06:53;6.6;;;4.0;;
50651;SDS011;61429;52.086;5.240;2022-12-07T00:08:29;8.71;;;5.6;;
50651;SDS011;61429;52.086;5.240;2022-12-07T00:11:45;6.0;;;4.0;;
50651;SDS011;61429;52.086;5.240;2022-12-07T07:26:38;7.5;;;2.7;;
50651;SDS011;61429;52.086;5.240;2022-12-07T07:28:15;7.2;;;2.4;;
50651;SDS011;61429;52.086;5.240;2022-12-07T07:29:52;7.0;;;2.31;;
50651;SDS011;61429;52.086;5.240;2022-12-07T07:33:04;6.9;;;2.21;;
50651;SDS011;61429;52.086;5.240;2022-12-07T07:34:41;7.1;;;2.4;;
50651;SDS011;61429;52.086;5.240;2022-12-07T07:36:18;6.9;;;2.5;;
50651;SDS011;61429;52.086;5.240;2022-12-07T07:39:31;6.6;;;2.5;;
50651;SDS011;61429;52.086;5.240;2022-12-07T07:41:07;8.1;;;2.5;;
50651;SDS011;61429;52.086;5.240;2022-12-07T07:42:43;8.9;;;2.7;;
50651;SDS011;61429;52.086;5.240;2022-12-07T07:45:55;6.4;;;2.21;;
50651;SDS011;61429;52.086;5.240;2022-12-07T07:47:31;6.4;;;2.7;;
50651;SDS011;61429;52.086;5.240;2022-12-07T07:49:08;7.0;;;2.6;;
50651;SDS011;61429;52.086;5.240;2022-12-07T07:50:45;8.4;;;2.9;;
50651;SDS011;61429;52.086;5.240;2022-12-07T07:53:57;7.0;;;2.6;;
50651;SDS011;61429;52.086;5.240;2022-12-07T07:55:33;9.5;;;2.9;;
50651;SDS011;61429;52.086;5.240;2022-12-07T07:57:10;9.71;;;2.8;;
50651;SDS011;61429;52.086;5.240;2022-12-07T08:00:22;5.4;;;2.1;;
50651;SDS011;61429;52.086;5.240;2022-12-07T08:01:58;7.1;;;2.7;;
50651;SDS011;61429;52.086;5.240;2022-12-07T08:03:34;8.2;;;2.6;;
50651;SDS011;61429;52.086;5.240;2022-12-07T08:06:49;8.71;;;2.7;;
50651;SDS011;61429;52.086;5.240;2022-12-07T08:08:25;8.31;;;2.8;;
50651;SDS011;61429;52.086;5.240;2022-12-07T08:10:01;8.9;;;3.3;;
50651;SDS011;61429;52.086;5.240;2022-12-07T08:13:15;7.6;;;3.3;;
50651;SDS011;61429;52.086;5.240;2022-12-07T08:14:51;7.8;;;3.4;;
50651;SDS011;61429;52.086;5.240;2022-12-07T08:16:28;6.9;;;3.2;;
50651;SDS011;61429;52.086;5.240;2022-12-07T08:18:05;7.5;;;3.6;;
50651;SDS011;61429;52.086;5.240;2022-12-07T08:21:18;9.0;;;4.1;;
50651;SDS011;61429;52.086;5.240;2022-12-07T08:22:54;9.5;;;3.9;;
50651;SDS011;61429;52.086;5.240;2022-12-07T08:24:32;8.71;;;4.0;;
50651;SDS011;61429;52.086;5.240;2022-12-07T08:27:48;9.4;;;4.41;;
50651;SDS011;61429;52.086;5.240;2022-12-07T08:29:25;8.0;;;3.8;;
50651;SDS011;61429;52.086;5.240;2022-12-07T08:31:01;9.4;;;3.0;;
50651;SDS011;61429;52.086;5.240;2022-12-07T08:32:39;10.3;;;3.2;;
50651;SDS011;61429;52.086;5.240;2022-12-07T08:35:52;7.0;;;2.9;;
50651;SDS011;61429;52.086;5.240;2022-12-07T08:37:28;6.3;;;2.7;;
50651;SDS011;61429;52.086;5.240;2022-12-07T08:39:04;6.5;;;2.5;;
50651;SDS011;61429;52.086;5.240;2022-12-07T08:42:17;5.9;;;2.5;;
50651;SDS011;61429;52.086;5.240;2022-12-07T08:43:53;6.9;;;2.5;;
50651;SDS011;61429;52.086;5.240;2022-12-07T08:45:32;6.2;;;2.4;;
50651;SDS011;61429;52.086;5.240;2022-12-07T08:48:48;6.4;;;2.6;;
50651;SDS011;61429;52.086;5.240;2022-12-07T08:50:28;7.7;;;2.9;;
50651;SDS011;61429;52.086;5.240;2022-12-07T08:52:07;11.3;;;3.0;;
50651;SDS011;61429;52.086;5.240;2022-12-07T08:53:43;7.0;;;2.7;;
50651;SDS011;61429;52.086;5.240;2022-12-07T08:56:57;7.1;;;2.9;;
50651;SDS011;61429;52.086;5.240;2022-12-07T08:58:33;7.7;;;3.1;;
50651;SDS011;61429;52.086;5.240;2022-12-07T09:00:12;7.5;;;2.7;;
50651;SDS011;61429;52.086;5.240;2022-12-07T09:03:26;7.6;;;2.9;;
50651;SDS011;61429;52.086;5.240;2022-12-07T09:05:02;7.2;;;2.9;;
50651;SDS011;61429;52.086;5.240;2022-12-07T09:06:40;8.4;;;2.7;;
50651;SDS011;61429;52.086;5.240;2022-12-07T09:08:18;8.71;;;2.9;;
50651;SDS011;61429;52.086;5.240;2022-12-07T09:11:32;7.1;;;2.5;;
50651;SDS011;61429;52.086;5.240;2022-12-07T09:13:08;4.2;;;2.21;;
50651;SDS011;61429;52.086;5.240;2022-12-07T09:14:44;7.5;;;2.4;;
50651;SDS011;61429;52.086;5.240;2022-12-07T09:17:56;6.6;;;2.5;;
50651;SDS011;61429;52.086;5.240;2022-12-07T09:19:33;7.7;;;2.6;;
50651;SDS011;61429;52.086;5.240;2022-12-07T09:21:09;5.7;;;2.6;;
50651;SDS011;61429;52.086;5.240;2022-12-07T09:24:22;7.3;;;2.5;;
50651;SDS011;61429;52.086;5.240;2022-12-07T09:25:59;6.9;;;2.6;;
50651;SDS011;61429;52.086;5.240;2022-12-07T09:27:35;8.4;;;2.31;;
50651;SDS011;61429;52.086;5.240;2022-12-07T09:29:12;5.8;;;2.4;;
50651;SDS011;61429;52.086;5.240;2022-12-07T09:32:25;10.1;;;2.8;;
50651;SDS011;61429;52.086;5.240;2022-12-07T09:34:01;8.2;;;2.7;;
50651;SDS011;61429;52.086;5.240;2022-12-07T09:35:37;5.7;;;2.4;;
50651;SDS011;61429;52.086;5.240;2022-12-07T09:38:50;5.4;;;2.5;;
50651;SDS011;61429;52.086;5.240;2022-12-07T09:40:27;6.2;;;2.6;;
50651;SDS011;61429;52.086;5.240;2022-12-07T09:42:04;6.4;;;2.21;;
50651;SDS011;61429;52.086;5.240;2022-12-07T09:45:21;7.4;;;2.5;;
50651;SDS011;61429;52.086;5.240;2022-12-07T09:47:00;4.7;;;2.4;;
50651;SDS011;61429;52.086;5.240;2022-12-07T09:48:37;5.6;;;2.21;;
50651;SDS011;61429;52.086;5.240;2022-12-07T09:50:14;9.0;;;2.5;;
50651;SDS011;61429;52.086;5.240;2022-12-07T09:53:54;5.0;;;2.21;;
50651;SDS011;61429;52.086;5.240;2022-12-07T09:55:41;7.7;;;2.31;;
50651;SDS011;61429;52.086;5.240;2022-12-07T09:57:27;6.2;;;2.4;;
50651;SDS011;61429;52.086;5.240;2022-12-07T09:59:06;6.9;;;2.4;;
50651;SDS011;61429;52.086;5.240;2022-12-07T10:00:50;6.6;;;2.7;;
50651;SDS011;61429;52.086;5.240;2022-12-07T10:04:13;6.1;;;2.21;;
50651;SDS011;61429;52.086;5.240;2022-12-07T10:05:54;7.5;;;2.1;;
50651;SDS011;61429;52.086;5.240;2022-12-07T10:07:31;5.5;;;2.31;;
50651;SDS011;61429;52.086;5.240;2022-12-07T10:09:08;5.4;;;2.0;;
50651;SDS011;61429;52.086;5.240;2022-12-07T10:12:28;5.5;;;2.21;;
50651;SDS011;61429;52.086;5.240;2022-12-07T10:14:10;5.2;;;2.31;;
50651;SDS011;61429;52.086;5.240;2022-12-07T10:15:50;5.5;;;2.31;;
50651;SDS011;61429;52.086;5.240;2022-12-07T10:17:30;5.6;;;2.21;;
50651;SDS011;61429;52.086;5.240;2022-12-07T10:21:00;6.3;;;2.6;;
50651;SDS011;61429;52.086;5.240;2022-12-07T10:22:52;4.8;;;2.6;;
50651;SDS011;61429;52.086;5.240;2022-12-07T10:24:30;5.0;;;2.7;;
50651;SDS011;61429;52.086;5.240;2022-12-07T10:26:40;7.9;;;3.0;;
50651;SDS011;61429;52.086;5.240;2022-12-07T10:28:33;5.5;;;2.7;;
50651;SDS011;61429;52.086;5.240;2022-12-07T10:30:12;8.5;;;2.7;;
50651;SDS011;61429;52.086;5.240;2022-12-07T10:32:00;6.6;;;2.7;;
50651;SDS011;61429;52.086;5.240;2022-12-07T10:35:26;6.4;;;2.5;;
50651;SDS011;61429;52.086;5.240;2022-12-07T10:37:20;7.3;;;2.6;;
50651;SDS011;61429;52.086;5.240;2022-12-07T10:38:59;7.4;;;2.4;;
50651;SDS011;61429;52.086;5.240;2022-12-07T10:40:38;6.9;;;2.4;;
50651;SDS011;61429;52.086;5.240;2022-12-07T10:43:55;8.0;;;2.5;;
50651;SDS011;61429;52.086;5.240;2022-12-07T10:45:34;5.7;;;2.31;;
50651;SDS011;61429;52.086;5.240;2022-12-07T10:47:22;6.7;;;2.0;;
50651;SDS011;61429;52.086;5.240;2022-12-07T10:49:10;6.4;;;2.31;;
50651;SDS011;61429;52.086;5.240;2022-12-07T10:52:28;6.1;;;2.21;;
50651;SDS011;61429;52.086;5.240;2022-12-07T10:54:20;5.7;;;2.0;;
50651;SDS011;61429;52.086;5.240;2022-12-07T10:56:17;5.11;;;2.1;;
50651;SDS011;61429;52.086;5.240;2022-12-07T10:58:25;5.8;;;2.1;;
50651;SDS011;61429;52.086;5.240;2022-12-07T11:00:15;5.6;;;2.21;;
50651;SDS011;61429;52.086;5.240;2022-12-07T11:01:57;5.7;;;2.1;;
50651;SDS011;61429;52.086;5.240;2022-12-07T11:03:53;6.0;;;2.1;;
50651;SDS011;61429;52.086;5.240;2022-12-07T11:05:54;5.9;;;2.21;;
50651;SDS011;61429;52.086;5.240;2022-12-07T11:07:42;3.4;;;1.9;;
50651;SDS011;61429;52.086;5.240;2022-12-07T11:11:44;5.7;;;2.21;;
50651;SDS011;61429;52.086;5.240;2022-12-07T11:15:22;6.2;;;2.21;;
50651;SDS011;61429;52.086;5.240;2022-12-07T11:17:05;3.9;;;1.9;;
50651;SDS011;61429;52.086;5.240;2022-12-07T11:18:51;5.8;;;1.9;;
50651;SDS011;61429;52.086;5.240;2022-12-07T11:20:43;5.5;;;2.1;;
50651;SDS011;61429;52.086;5.240;2022-12-07T11:22:28;5.0;;;2.1;;
50651;SDS011;61429;52.086;5.240;2022-12-07T11:24:14;6.6;;;2.21;;
50651;SDS011;61429;52.086;5.240;2022-12-07T11:27:43;7.5;;;2.31;;
50651;SDS011;61429;52.086;5.240;2022-12-07T11:29:44;4.7;;;1.8;;
50651;SDS011;61429;52.086;5.240;2022-12-07T11:31:31;3.8;;;1.5;;
50651;SDS011;61429;52.086;5.240;2022-12-07T11:33:29;4.2;;;1.8;;
50651;SDS011;61429;52.086;5.240;2022-12-07T11:35:17;4.7;;;1.7;;
50651;SDS011;61429;52.086;5.240;2022-12-07T11:37:08;5.2;;;1.9;;
50651;SDS011;61429;52.086;5.240;2022-12-07T11:38:50;7.2;;;2.1;;
50651;SDS011;61429;52.086;5.240;2022-12-07T11:42:12;4.8;;;2.0;;
50651;SDS011;61429;52.086;5.240;2022-12-07T11:43:58;5.5;;;1.9;;
50651;SDS011;61429;52.086;5.240;2022-12-07T11:45:41;6.3;;;2.0;;
50651;SDS011;61429;52.086;5.240;2022-12-07T11:47:22;5.8;;;2.21;;
50651;SDS011;61429;52.086;5.240;2022-12-07T11:50:51;5.9;;;2.0;;
50651;SDS011;61429;52.086;5.240;2022-12-07T11:52:36;5.4;;;2.1;;
50651;SDS011;61429;52.086;5.240;2022-12-07T11:54:25;6.0;;;2.21;;
50651;SDS011;61429;52.086;5.240;2022-12-07T11:56:08;7.1;;;2.21;;
50651;SDS011;61429;52.086;5.240;2022-12-07T11:57:49;6.3;;;2.21;;
50651;SDS011;61429;52.086;5.240;2022-12-07T12:01:39;6.0;;;2.5;;
50651;SDS011;61429;52.086;5.240;2022-12-07T12:03:24;7.5;;;2.4;;
50651;SDS011;61429;52.086;5.240;2022-12-07T12:05:12;5.2;;;2.4;;
50651;SDS011;61429;52.086;5.240;2022-12-07T12:06:53;6.5;;;2.31;;
50651;SDS011;61429;52.086;5.240;2022-12-07T12:10:15;5.0;;;2.21;;
50651;SDS011;61429;52.086;5.240;2022-12-07T12:14:01;6.5;;;2.31;;
50651;SDS011;61429;52.086;5.240;2022-12-07T12:16:01;5.6;;;2.1;;
50651;SDS011;61429;52.086;5.240;2022-12-07T12:17:56;4.91;;;2.1;;
50651;SDS011;61429;52.086;5.240;2022-12-07T12:21:02;5.3;;;2.21;;
50651;SDS011;61429;52.086;5.240;2022-12-07T12:22:44;8.2;;;2.5;;
50651;SDS011;61429;52.086;5.240;2022-12-07T12:26:08;6.3;;;2.0;;
50651;SDS011;61429;52.086;5.240;2022-12-07T12:27:54;6.0;;;2.0;;
50651;SDS011;61429;52.086;5.240;2022-12-07T12:29:33;5.6;;;2.21;;
50651;SDS011;61429;52.086;5.240;2022-12-07T12:31:13;7.1;;;2.7;;
50651;SDS011;61429;52.086;5.240;2022-12-07T12:34:30;6.3;;;2.4;;
50651;SDS011;61429;52.086;5.240;2022-12-07T12:36:18;5.0;;;2.0;;
50651;SDS011;61429;52.086;5.240;2022-12-07T12:38:31;5.0;;;2.0;;
50651;SDS011;61429;52.086;5.240;2022-12-07T12:40:42;9.9;;;3.1;;
50651;SDS011;61429;52.086;5.240;2022-12-07T12:42:19;5.7;;;2.0;;
50651;SDS011;61429;52.086;5.240;2022-12-07T12:43:55;5.8;;;2.21;;
50651;SDS011;61429;52.086;5.240;2022-12-07T12:48:27;4.91;;;2.21;;
50651;SDS011;61429;52.086;5.240;2022-12-07T12:50:22;5.11;;;2.1;;
50651;SDS011;61429;52.086;5.240;2022-12-07T12:55:53;5.0;;;2.1;;
50651;SDS011;61429;52.086;5.240;2022-12-07T12:58:32;6.5;;;2.1;;
50651;SDS011;61429;52.086;5.240;2022-12-07T13:00:23;5.11;;;2.31;;
50651;SDS011;61429;52.086;5.240;2022-12-07T13:03:56;5.6;;;2.31;;
50651;SDS011;61429;52.086;5.240;2022-12-07T13:05:33;6.8;;;2.21;;
50651;SDS011;61429;52.086;5.240;2022-12-07T13:07:11;6.8;;;2.31;;
50651;SDS011;61429;52.086;5.240;2022-12-07T13:08:49;7.1;;;2.5;;
50651;SDS011;61429;52.086;5.240;2022-12-07T13:12:16;7.2;;;2.31;;
50651;SDS011;61429;52.086;5.240;2022-12-07T13:14:17;6.7;;;2.5;;
50651;SDS011;61429;52.086;5.240;2022-12-07T13:16:36;6.5;;;2.7;;
50651;SDS011;61429;52.086;5.240;2022-12-07T13:18:25;7.4;;;2.6;;
50651;SDS011;61429;52.086;5.240;2022-12-07T13:20:39;5.0;;;2.21;;
50651;SDS011;61429;52.086;5.240;2022-12-07T13:22:53;5.5;;;2.4;;
50651;SDS011;61429;52.086;5.240;2022-12-07T13:24:35;5.7;;;2.31;;
50651;SDS011;61429;52.086;5.240;2022-12-07T13:26:13;5.9;;;2.4;;
50651;SDS011;61429;52.086;5.240;2022-12-07T13:27:55;5.5;;;2.31;;
50651;SDS011;61429;52.086;5.240;2022-12-07T13:31:19;7.9;;;2.31;;
50651;SDS011;61429;52.086;5.240;2022-12-07T13:33:08;7.9;;;2.8;;
50651;SDS011;61429;52.086;5.240;2022-12-07T13:34:46;6.4;;;2.6;;
50651;SDS011;61429;52.086;5.240;2022-12-07T13:36:22;7.0;;;2.1;;
50651;SDS011;61429;52.086;5.240;2022-12-07T13:39:44;7.0;;;2.1;;
50651;SDS011;61429;52.086;5.240;2022-12-07T13:41:23;4.61;;;2.0;;
50651;SDS011;61429;52.086;5.240;2022-12-07T13:43:02;4.61;;;2.0;;
50651;SDS011;61429;52.086;5.240;2022-12-07T13:44:48;4.61;;;2.1;;
50651;SDS011;61429;52.086;5.240;2022-12-07T13:46:26;6.6;;;2.1;;
50651;SDS011;61429;52.086;5.240;2022-12-07T13:49:55;5.0;;;2.31;;
50651;SDS011;61429;52.086;5.240;2022-12-07T13:51:34;5.7;;;2.21;;
50651;SDS011;61429;52.086;5.240;2022-12-07T13:53:13;5.4;;;2.21;;
50651;SDS011;61429;52.086;5.240;2022-12-07T13:54:54;4.41;;;1.8;;
50651;SDS011;61429;52.086;5.240;2022-12-07T13:58:11;7.1;;;2.31;;
50651;SDS011;61429;52.086;5.240;2022-12-07T13:59:48;6.6;;;2.21;;
50651;SDS011;61429;52.086;5.240;2022-12-07T14:01:25;4.7;;;1.9;;
50651;SDS011;61429;52.086;5.240;2022-12-07T14:05:06;5.5;;;1.9;;
50651;SDS011;61429;52.086;5.240;2022-12-07T14:06:47;6.6;;;2.31;;
50651;SDS011;61429;52.086;5.240;2022-12-07T14:08:25;4.5;;;1.7;;
50651;SDS011;61429;52.086;5.240;2022-12-07T14:10:22;4.3;;;1.6;;
50651;SDS011;61429;52.086;5.240;2022-12-07T14:12:05;3.2;;;1.3;;
50651;SDS011;61429;52.086;5.240;2022-12-07T14:13:44;3.0;;;1.4;;
50651;SDS011;61429;52.086;5.240;2022-12-07T14:17:12;3.2;;;1.3;;
50651;SDS011;61429;52.086;5.240;2022-12-07T14:18:51;4.61;;;1.4;;
50651;SDS011;61429;52.086;5.240;2022-12-07T14:20:28;4.0;;;1.5;;
50651;SDS011;61429;52.086;5.240;2022-12-07T14:22:07;3.8;;;1.6;;
50651;SDS011;61429;52.086;5.240;2022-12-07T14:25:50;3.5;;;1.5;;
50651;SDS011;61429;52.086;5.240;2022-12-07T14:27:31;3.5;;;1.4;;
50651;SDS011;61429;52.086;5.240;2022-12-07T14:29:41;3.6;;;1.6;;
50651;SDS011;61429;52.086;5.240;2022-12-07T14:31:18;5.0;;;1.5;;
50651;SDS011;61429;52.086;5.240;2022-12-07T14:33:00;4.2;;;1.7;;
50651;SDS011;61429;52.086;5.240;2022-12-07T14:34:39;3.0;;;1.5;;
50651;SDS011;61429;52.086;5.240;2022-12-07T14:37:51;4.0;;;1.5;;
50651;SDS011;61429;52.086;5.240;2022-12-07T14:39:27;4.0;;;1.5;;
50651;SDS011;61429;52.086;5.240;2022-12-07T14:41:50;4.0;;;1.4;;
50651;SDS011;61429;52.086;5.240;2022-12-07T14:43:26;3.7;;;1.5;;
50651;SDS011;61429;52.086;5.240;2022-12-07T14:45:05;3.3;;;1.4;;
50651;SDS011;61429;52.086;5.240;2022-12-07T14:48:28;3.4;;;1.5;;
50651;SDS011;61429;52.086;5.240;2022-12-07T14:50:04;4.0;;;1.5;;
50651;SDS011;61429;52.086;5.240;2022-12-07T14:51:42;4.61;;;1.8;;
50651;SDS011;61429;52.086;5.240;2022-12-07T14:53:24;3.7;;;1.9;;
50651;SDS011;61429;52.086;5.240;2022-12-07T14:56:55;4.41;;;1.8;;
50651;SDS011;61429;52.086;5.240;2022-12-07T14:58:32;5.0;;;2.1;;
50651;SDS011;61429;52.086;5.240;2022-12-07T15:00:13;4.61;;;1.8;;
50651;SDS011;61429;52.086;5.240;2022-12-07T15:01:50;4.0;;;1.8;;
50651;SDS011;61429;52.086;5.240;2022-12-07T15:05:03;6.0;;;3.1;;
50651;SDS011;61429;52.086;5.240;2022-12-07T15:06:40;5.11;;;2.0;;
50651;SDS011;61429;52.086;5.240;2022-12-07T15:08:16;5.5;;;2.21;;
50651;SDS011;61429;52.086;5.240;2022-12-07T15:11:28;3.1;;;2.1;;
50651;SDS011;61429;52.086;5.240;2022-12-07T15:14:07;6.0;;;2.21;;
50651;SDS011;61429;52.086;5.240;2022-12-07T15:15:43;4.2;;;2.1;;
50651;SDS011;61429;52.086;5.240;2022-12-07T15:17:20;4.2;;;2.1;;
50651;SDS011;61429;52.086;5.240;2022-12-07T15:18:56;4.5;;;2.21;;
50651;SDS011;61429;52.086;5.240;2022-12-07T15:20:32;5.9;;;2.1;;
50651;SDS011;61429;52.086;5.240;2022-12-07T15:23:47;6.1;;;2.4;;
50651;SDS011;61429;52.086;5.240;2022-12-07T15:25:24;6.4;;;2.5;;
50651;SDS011;61429;52.086;5.240;2022-12-07T15:27:01;4.91;;;2.31;;
50651;SDS011;61429;52.086;5.240;2022-12-07T15:30:14;5.2;;;2.21;;
50651;SDS011;61429;52.086;5.240;2022-12-07T15:31:50;4.91;;;2.0;;
50651;SDS011;61429;52.086;5.240;2022-12-07T15:33:27;4.41;;;2.21;;
50651;SDS011;61429;52.086;5.240;2022-12-07T15:36:41;4.0;;;2.31;;
50651;SDS011;61429;52.086;5.240;2022-12-07T15:38:17;5.0;;;2.6;;
50651;SDS011;61429;52.086;5.240;2022-12-07T15:39:53;4.5;;;2.4;;
50651;SDS011;61429;52.086;5.240;2022-12-07T15:41:29;4.8;;;2.6;;
50651;SDS011;61429;52.086;5.240;2022-12-07T15:46:42;4.3;;;2.0;;
50651;SDS011;61429;52.086;5.240;2022-12-07T15:48:18;5.11;;;2.0;;
50651;SDS011;61429;52.086;5.240;2022-12-07T15:49:56;3.8;;;1.9;;
50651;SDS011;61429;52.086;5.240;2022-12-07T15:53:08;5.2;;;2.1;;
50651;SDS011;61429;52.086;5.240;2022-12-07T15:54:45;5.2;;;2.4;;
50651;SDS011;61429;52.086;5.240;2022-12-07T15:56:21;4.5;;;1.8;;
50651;SDS011;61429;52.086;5.240;2022-12-07T15:59:33;5.0;;;2.21;;
50651;SDS011;61429;52.086;5.240;2022-12-07T16:01:10;3.8;;;1.9;;
50651;SDS011;61429;52.086;5.240;2022-12-07T16:02:47;3.8;;;1.9;;
50651;SDS011;61429;52.086;5.240;2022-12-07T16:05:59;3.9;;;1.9;;
50651;SDS011;61429;52.086;5.240;2022-12-07T16:07:35;4.3;;;2.1;;
50651;SDS011;61429;52.086;5.240;2022-12-07T16:09:11;4.2;;;2.1;;
50651;SDS011;61429;52.086;5.240;2022-12-07T16:10:47;3.9;;;2.31;;
50651;SDS011;61429;52.086;5.240;2022-12-07T16:14:01;4.7;;;2.5;;
50651;SDS011;61429;52.086;5.240;2022-12-07T16:15:37;8.2;;;4.0;;
50651;SDS011;61429;52.086;5.240;2022-12-07T16:17:14;5.8;;;2.9;;
50651;SDS011;61429;52.086;5.240;2022-12-07T16:20:27;6.0;;;2.9;;
50651;SDS011;61429;52.086;5.240;2022-12-07T16:22:04;5.5;;;3.1;;
50651;SDS011;61429;52.086;5.240;2022-12-07T16:23:41;5.6;;;3.4;;
50651;SDS011;61429;52.086;5.240;2022-12-07T16:26:55;3.9;;;2.9;;
50651;SDS011;61429;52.086;5.240;2022-12-07T16:28:30;6.6;;;3.2;;
50651;SDS011;61429;52.086;5.240;2022-12-07T16:30:07;6.9;;;3.1;;
50651;SDS011;61429;52.086;5.240;2022-12-07T16:31:44;6.0;;;3.1;;
50651;SDS011;61429;52.086;5.240;2022-12-07T16:34:57;6.7;;;4.61;;
50651;SDS011;61429;52.086;5.240;2022-12-07T16:36:33;6.2;;;3.2;;
50651;SDS011;61429;52.086;5.240;2022-12-07T16:38:10;6.7;;;3.5;;
50651;SDS011;61429;52.086;5.240;2022-12-07T16:41:22;5.7;;;3.1;;
50651;SDS011;61429;52.086;5.240;2022-12-07T16:42:59;5.5;;;3.3;;
50651;SDS011;61429;52.086;5.240;2022-12-07T16:44:35;5.8;;;3.3;;
50651;SDS011;61429;52.086;5.240;2022-12-07T16:47:49;6.9;;;3.2;;
50651;SDS011;61429;52.086;5.240;2022-12-07T16:49:25;6.1;;;3.2;;
50651;SDS011;61429;52.086;5.240;2022-12-07T16:51:02;5.9;;;2.7;;
50651;SDS011;61429;52.086;5.240;2022-12-07T16:52:40;5.2;;;2.9;;
50651;SDS011;61429;52.086;5.240;2022-12-07T16:55:53;6.5;;;3.9;;
50651;SDS011;61429;52.086;5.240;2022-12-07T16:57:30;6.8;;;3.4;;
50651;SDS011;61429;52.086;5.240;2022-12-07T16:59:06;6.5;;;3.1;;
50651;SDS011;61429;52.086;5.240;2022-12-07T17:02:20;5.5;;;3.1;;
50651;SDS011;61429;52.086;5.240;2022-12-07T17:03:57;7.4;;;3.8;;
50651;SDS011;61429;52.086;5.240;2022-12-07T17:05:36;7.1;;;4.0;;
50651;SDS011;61429;52.086;5.240;2022-12-07T17:07:14;7.0;;;3.6;;
50651;SDS011;61429;52.086;5.240;2022-12-07T17:10:27;7.6;;;3.6;;
50651;SDS011;61429;52.086;5.240;2022-12-07T17:12:05;7.6;;;4.0;;
50651;SDS011;61429;52.086;5.240;2022-12-07T17:15:29;7.0;;;4.0;;
50651;SDS011;61429;52.086;5.240;2022-12-07T17:17:06;8.6;;;5.4;;
50651;SDS011;61429;52.086;5.240;2022-12-07T17:18:43;7.7;;;4.2;;
50651;SDS011;61429;52.086;5.240;2022-12-07T17:20:20;7.9;;;4.5;;
50651;SDS011;61429;52.086;5.240;2022-12-07T17:21:57;8.2;;;4.3;;
50651;SDS011;61429;52.086;5.240;2022-12-07T17:25:12;6.7;;;4.5;;
50651;SDS011;61429;52.086;5.240;2022-12-07T17:26:49;10.4;;;6.0;;
50651;SDS011;61429;52.086;5.240;2022-12-07T17:28:26;8.2;;;5.0;;
50651;SDS011;61429;52.086;5.240;2022-12-07T17:31:41;10.1;;;4.61;;
50651;SDS011;61429;52.086;5.240;2022-12-07T17:33:20;9.1;;;4.0;;
50651;SDS011;61429;52.086;5.240;2022-12-07T17:34:56;9.21;;;4.8;;
50651;SDS011;61429;52.086;5.240;2022-12-07T17:36:32;5.4;;;3.6;;
50651;SDS011;61429;52.086;5.240;2022-12-07T17:39:45;7.0;;;3.8;;
50651;SDS011;61429;52.086;5.240;2022-12-07T17:42:35;5.5;;;3.4;;
50651;SDS011;61429;52.086;5.240;2022-12-07T17:44:12;6.3;;;3.6;;
50651;SDS011;61429;52.086;5.240;2022-12-07T17:45:50;6.5;;;3.4;;
50651;SDS011;61429;52.086;5.240;2022-12-07T17:47:27;6.2;;;4.3;;
50651;SDS011;61429;52.086;5.240;2022-12-07T17:49:04;7.6;;;4.7;;
50651;SDS011;61429;52.086;5.240;2022-12-07T17:54:52;7.6;;;3.8;;
50651;SDS011;61429;52.086;5.240;2022-12-07T17:56:28;6.8;;;4.1;;
50651;SDS011;61429;52.086;5.240;2022-12-07T17:58:04;6.9;;;4.3;;
50651;SDS011;61429;52.086;5.240;2022-12-07T17:59:41;7.8;;;4.3;;
50651;SDS011;61429;52.086;5.240;2022-12-07T18:02:54;7.2;;;3.9;;
50651;SDS011;61429;52.086;5.240;2022-12-07T18:04:30;6.9;;;3.8;;
50651;SDS011;61429;52.086;5.240;2022-12-07T18:06:09;6.1;;;3.6;;
50651;SDS011;61429;52.086;5.240;2022-12-07T18:09:22;6.7;;;3.5;;
50651;SDS011;61429;52.086;5.240;2022-12-07T18:10:59;8.81;;;4.91;;
50651;SDS011;61429;52.086;5.240;2022-12-07T18:12:36;10.5;;;5.6;;
50651;SDS011;61429;52.086;5.240;2022-12-07T18:14:13;8.5;;;5.2;;
50651;SDS011;61429;52.086;5.240;2022-12-07T18:17:31;8.2;;;4.2;;
50651;SDS011;61429;52.086;5.240;2022-12-07T18:19:08;9.21;;;5.5;;
50651;SDS011;61429;52.086;5.240;2022-12-07T18:20:46;12.5;;;8.5;;
50651;SDS011;61429;52.086;5.240;2022-12-07T18:24:00;8.1;;;5.5;;
50651;SDS011;61429;52.086;5.240;2022-12-07T18:25:39;7.0;;;4.5;;
50651;SDS011;61429;52.086;5.240;2022-12-07T18:27:15;6.8;;;3.8;;
50651;SDS011;61429;52.086;5.240;2022-12-07T18:28:52;9.4;;;5.2;;
50651;SDS011;61429;52.086;5.240;2022-12-07T18:32:04;10.5;;;7.1;;
50651;SDS011;61429;52.086;5.240;2022-12-07T18:33:41;8.1;;;5.8;;
50651;SDS011;61429;52.086;5.240;2022-12-07T18:35:19;8.6;;;5.3;;
50651;SDS011;61429;52.086;5.240;2022-12-07T18:38:32;8.0;;;6.1;;
50651;SDS011;61429;52.086;5.240;2022-12-07T18:40:09;9.1;;;6.8;;
50651;SDS011;61429;52.086;5.240;2022-12-07T18:41:47;9.0;;;6.9;;
50651;SDS011;61429;52.086;5.240;2022-12-07T18:45:00;9.0;;;5.7;;
50651;SDS011;61429;52.086;5.240;2022-12-07T18:46:37;9.71;;;6.6;;
50651;SDS011;61429;52.086;5.240;2022-12-07T18:48:14;12.7;;;8.71;;
50651;SDS011;61429;52.086;5.240;2022-12-07T18:49:51;9.21;;;5.9;;
50651;SDS011;61429;52.086;5.240;2022-12-07T18:53:07;7.6;;;5.0;;
50651;SDS011;61429;52.086;5.240;2022-12-07T18:54:43;7.3;;;4.91;;
50651;SDS011;61429;52.086;5.240;2022-12-07T18:56:22;7.6;;;4.91;;
50651;SDS011;61429;52.086;5.240;2022-12-07T18:59:52;7.0;;;4.61;;
50651;SDS011;61429;52.086;5.240;2022-12-07T19:01:29;9.0;;;4.8;;
50651;SDS011;61429;52.086;5.240;2022-12-07T19:03:06;6.6;;;3.9;;
50651;SDS011;61429;52.086;5.240;2022-12-07T19:04:42;7.0;;;3.6;;
50651;SDS011;61429;52.086;5.240;2022-12-07T19:07:55;7.9;;;3.7;;
50651;SDS011;61429;52.086;5.240;2022-12-07T19:09:31;6.7;;;3.5;;
50651;SDS011;61429;52.086;5.240;2022-12-07T19:11:48;7.6;;;3.9;;
50651;SDS011;61429;52.086;5.240;2022-12-07T19:13:24;7.0;;;3.6;;
50651;SDS011;61429;52.086;5.240;2022-12-07T19:15:00;6.7;;;4.1;;
50651;SDS011;61429;52.086;5.240;2022-12-07T19:18:19;7.0;;;3.6;;
50651;SDS011;61429;52.086;5.240;2022-12-07T19:19:55;7.0;;;4.0;;
50651;SDS011;61429;52.086;5.240;2022-12-07T19:21:31;6.8;;;3.8;;
50651;SDS011;61429;52.086;5.240;2022-12-07T19:24:47;7.5;;;4.1;;
50651;SDS011;61429;52.086;5.240;2022-12-07T19:26:26;9.0;;;4.3;;
50651;SDS011;61429;52.086;5.240;2022-12-07T19:28:02;12.4;;;5.4;;
50651;SDS011;61429;52.086;5.240;2022-12-07T19:29:39;7.6;;;4.1;;
50651;SDS011;61429;52.086;5.240;2022-12-07T19:32:52;8.31;;;4.41;;
50651;SDS011;61429;52.086;5.240;2022-12-07T19:34:28;8.5;;;4.61;;
50651;SDS011;61429;52.086;5.240;2022-12-07T19:36:06;7.3;;;5.0;;
50651;SDS011;61429;52.086;5.240;2022-12-07T19:39:19;8.81;;;4.5;;
50651;SDS011;61429;52.086;5.240;2022-12-07T19:41:02;8.31;;;4.8;;
50651;SDS011;61429;52.086;5.240;2022-12-07T19:42:39;8.1;;;5.2;;
50651;SDS011;61429;52.086;5.240;2022-12-07T19:44:16;9.81;;;5.8;;
50651;SDS011;61429;52.086;5.240;2022-12-07T19:47:31;10.1;;;5.7;;
50651;SDS011;61429;52.086;5.240;2022-12-07T19:49:07;10.21;;;5.3;;
50651;SDS011;61429;52.086;5.240;2022-12-07T19:50:45;8.0;;;4.61;;
50651;SDS011;61429;52.086;5.240;2022-12-07T19:53:58;10.7;;;5.2;;
50651;SDS011;61429;52.086;5.240;2022-12-07T19:55:37;11.9;;;4.91;;
50651;SDS011;61429;52.086;5.240;2022-12-07T19:57:15;10.0;;;5.5;;
50651;SDS011;61429;52.086;5.240;2022-12-07T19:58:51;8.81;;;5.0;;
50651;SDS011;61429;52.086;5.240;2022-12-07T20:02:04;8.4;;;4.8;;
50651;SDS011;61429;52.086;5.240;2022-12-07T20:03:42;8.1;;;4.5;;
50651;SDS011;61429;52.086;5.240;2022-12-07T20:05:18;10.1;;;4.8;;
50651;SDS011;61429;52.086;5.240;2022-12-07T20:08:33;9.71;;;5.11;;
50651;SDS011;61429;52.086;5.240;2022-12-07T20:10:09;8.81;;;5.2;;
50651;SDS011;61429;52.086;5.240;2022-12-07T20:13:34;7.4;;;4.8;;
50651;SDS011;61429;52.086;5.240;2022-12-07T20:15:10;8.2;;;5.11;;
50651;SDS011;61429;52.086;5.240;2022-12-07T20:16:46;11.7;;;6.1;;
50651;SDS011;61429;52.086;5.240;2022-12-07T20:18:24;11.0;;;5.8;;
50651;SDS011;61429;52.086;5.240;2022-12-07T20:20:00;10.4;;;6.1;;
50651;SDS011;61429;52.086;5.240;2022-12-07T20:23:14;8.6;;;5.6;;
50651;SDS011;61429;52.086;5.240;2022-12-07T20:24:50;8.2;;;4.5;;